Time;durP1;ratioP1;P1;durP2;ratioP2;P2;SDS_P1;SDS_P2;PMS_P1;PMS_P2;Temp;Humidity;BMP_temperature;BMP_pressure;BME280_temperature;BME280_humidity;BME280_pressure;Samples;Min_cycle;Max_cycle;Signal;HPM_P1;HPM_P2
2021/11/05 00:00:09;;;;;;;13.57;11.63;;;5.90;99.90;;;;;;5073561;28;20261;-71
2021/11/05 00:02:38;;;;;;;14.97;10.73;;;5.90;99.90;;;;;;5074014;28;20260;-71
2021/11/05 00:05:05;;;;;;;15.03;11.30;;;6.00;99.90;;;;;;5073125;28;20638;-72
2021/11/05 00:07:32;;;;;;;17.70;13.63;;;5.90;99.90;;;;;;5073113;28;20724;-70
2021/11/05 00:09:59;;;;;;;14.40;10.93;;;5.90;99.90;;;;;;5073270;28;20210;-70
2021/11/05 00:12:26;;;;;;;13.87;11.27;;;5.90;99.90;;;;;;5073347;28;20327;-73
2021/11/05 00:14:53;;;;;;;12.80;10.23;;;5.90;99.90;;;;;;5072852;28;20271;-70
2021/11/05 00:17:20;;;;;;;13.33;11.13;;;5.90;99.90;;;;;;5073227;28;20580;-72
2021/11/05 00:19:49;;;;;;;15.67;14.00;;;5.80;99.90;;;;;;5072518;28;20230;-70
2021/11/05 00:22:16;;;;;;;14.47;12.07;;;5.80;99.90;;;;;;5072967;28;20218;-70
2021/11/05 00:24:43;;;;;;;19.00;13.07;;;5.70;99.90;;;;;;5073053;28;20213;-70
2021/11/05 00:27:10;;;;;;;14.37;10.20;;;5.70;99.90;;;;;;5073617;28;20206;-69
2021/11/05 00:29:37;;;;;;;13.30;11.10;;;5.70;99.90;;;;;;5073274;28;20202;-69
2021/11/05 00:32:05;;;;;;;13.33;11.73;;;5.70;99.90;;;;;;5072486;28;20263;-69
2021/11/05 00:34:32;;;;;;;18.17;13.30;;;5.70;99.90;;;;;;5072627;28;20732;-69
2021/11/05 00:37:00;;;;;;;16.67;12.67;;;5.50;99.90;;;;;;5072637;28;20214;-69
2021/11/05 00:39:27;;;;;;;14.67;12.40;;;5.50;99.90;;;;;;5072526;28;20279;-70
2021/11/05 00:41:54;;;;;;;13.17;11.60;;;5.50;99.90;;;;;;5072175;28;20214;-69
2021/11/05 00:44:21;;;;;;;13.60;12.07;;;5.50;99.90;;;;;;5072842;28;20202;-69
2021/11/05 00:46:48;;;;;;;14.00;12.27;;;5.50;99.90;;;;;;5071977;28;20260;-72
2021/11/05 00:49:15;;;;;;;18.10;13.20;;;5.50;99.90;;;;;;5072741;28;20259;-71
2021/11/05 00:51:42;;;;;;;15.93;11.80;;;5.60;99.90;;;;;;5072208;28;20670;-71
2021/11/05 00:54:11;;;;;;;19.57;14.17;;;5.50;99.90;;;;;;5073211;28;20251;-70
2021/11/05 00:56:38;;;;;;;18.73;14.73;;;5.50;99.90;;;;;;5072976;28;20236;-69
2021/11/05 00:59:05;;;;;;;21.43;14.93;;;5.50;99.90;;;;;;5072405;28;20312;-70
2021/11/05 01:01:32;;;;;;;20.00;14.10;;;5.50;99.90;;;;;;5072587;28;20219;-69
2021/11/05 01:03:59;;;;;;;18.47;14.17;;;5.50;99.90;;;;;;5071774;28;20651;-73
2021/11/05 01:06:26;;;;;;;18.37;13.80;;;5.50;99.90;;;;;;5072693;28;20240;-73
2021/11/05 01:08:53;;;;;;;15.57;12.57;;;5.50;99.90;;;;;;5071334;28;20256;-69
2021/11/05 01:11:22;;;;;;;15.57;13.17;;;5.50;99.90;;;;;;5072507;28;20259;-69
2021/11/05 01:13:49;;;;;;;18.10;14.30;;;5.50;99.90;;;;;;5071463;28;20209;-73
2021/11/05 01:16:16;;;;;;;18.57;13.00;;;5.60;99.90;;;;;;5072236;28;20210;-74
2021/11/05 01:18:43;;;;;;;13.43;11.73;;;5.90;99.90;;;;;;5071621;28;20210;-69
2021/11/05 01:21:10;;;;;;;16.77;13.13;;;6.00;99.90;;;;;;5071956;28;20198;-70
2021/11/05 01:23:37;;;;;;;15.67;12.17;;;6.10;99.90;;;;;;5072526;28;20202;-70
2021/11/05 01:26:04;;;;;;;17.40;12.97;;;6.20;99.90;;;;;;5071516;28;20264;-70
2021/11/05 01:28:32;;;;;;;20.10;14.23;;;6.20;99.90;;;;;;5071895;28;20218;-74
2021/11/05 01:30:59;;;;;;;25.53;15.00;;;6.30;99.90;;;;;;5071467;28;20210;-74
2021/11/05 01:33:27;;;;;;;18.53;13.67;;;6.40;99.90;;;;;;5071834;28;20263;-69
2021/11/05 01:35:54;;;;;;;16.60;13.17;;;6.40;99.90;;;;;;5071399;28;20252;-73
2021/11/05 01:38:21;;;;;;;16.10;13.53;;;6.50;99.90;;;;;;5071566;28;20199;-70
2021/11/05 01:40:48;;;;;;;16.70;12.90;;;6.60;99.90;;;;;;5071064;28;20284;-72
2021/11/05 01:43:16;;;;;;;14.73;13.17;;;6.70;99.90;;;;;;5071613;28;20259;-73
2021/11/05 01:45:47;;;;;;;14.67;12.43;;;6.70;99.90;;;;;;5071493;28;20213;-72
2021/11/05 01:48:14;;;;;;;14.27;11.27;;;6.70;99.90;;;;;;5071070;28;20202;-72
2021/11/05 01:50:42;;;;;;;13.07;10.67;;;6.60;99.90;;;;;;5071779;28;20207;-73
2021/11/05 01:53:09;;;;;;;14.13;11.77;;;6.70;99.90;;;;;;5071679;28;20209;-73
2021/11/05 01:55:36;;;;;;;11.97;9.73;;;6.70;99.90;;;;;;5071257;28;20790;-73
2021/11/05 01:58:03;;;;;;;13.67;10.57;;;6.60;99.90;;;;;;5071152;28;20206;-73
2021/11/05 02:00:32;;;;;;;11.27;9.47;;;6.60;99.90;;;;;;5070849;28;20493;-72
2021/11/05 02:03:00;;;;;;;11.27;9.27;;;6.50;99.90;;;;;;5070942;28;20279;-72
2021/11/05 02:05:28;;;;;;;10.60;8.37;;;6.50;99.90;;;;;;5071194;28;20202;-72
2021/11/05 02:07:57;;;;;;;10.97;8.67;;;6.60;99.90;;;;;;5070594;28;20735;-73
2021/11/05 02:10:28;;;;;;;10.83;8.33;;;6.60;99.90;;;;;;5071070;28;20216;-73
2021/11/05 02:12:56;;;;;;;10.83;7.33;;;6.70;99.90;;;;;;5070581;28;20206;-73
2021/11/05 02:15:24;;;;;;;7.67;6.20;;;6.60;99.90;;;;;;5070921;28;20210;-69
2021/11/05 02:17:51;;;;;;;9.43;7.37;;;6.70;99.90;;;;;;5070413;28;20206;-71
2021/11/05 02:20:22;;;;;;;8.87;6.63;;;6.70;99.90;;;;;;5060954;28;20226;-72
2021/11/05 02:22:52;;;;;;;17.93;6.00;;;6.60;99.90;;;;;;5070157;28;20206;-72
2021/11/05 02:25:19;;;;;;;14.60;6.73;;;6.40;99.90;;;;;;5070841;28;20260;-73
2021/11/05 02:27:47;;;;;;;11.77;6.33;;;6.30;99.90;;;;;;5070588;28;20334;-74
2021/11/05 02:30:14;;;;;;;13.33;6.33;;;6.20;99.90;;;;;;5070867;28;20202;-70
2021/11/05 02:32:42;;;;;;;22.20;7.00;;;6.20;99.90;;;;;;5070644;28;20206;-71
2021/11/05 02:35:12;;;;;;;10.30;7.10;;;6.20;99.90;;;;;;5070819;28;20209;-69
2021/11/05 02:37:40;;;;;;;9.87;6.00;;;6.20;99.90;;;;;;5070885;28;20206;-69
2021/11/05 02:40:09;;;;;;;11.40;7.10;;;6.30;99.90;;;;;;5070812;28;20256;-69
2021/11/05 02:42:37;;;;;;;20.10;6.80;;;6.40;99.90;;;;;;5070844;28;20631;-69
2021/11/05 02:45:05;;;;;;;23.80;6.30;;;6.30;99.90;;;;;;5069825;28;20206;-69
2021/11/05 02:47:32;;;;;;;12.50;5.43;;;6.20;99.90;;;;;;5070492;28;20279;-69
2021/11/05 02:50:04;;;;;;;14.57;6.90;;;6.10;99.90;;;;;;5070147;28;20210;-71
2021/11/05 02:52:31;;;;;;;15.50;6.93;;;6.10;99.90;;;;;;5070749;28;20210;-71
2021/11/05 02:54:58;;;;;;;7.37;5.63;;;6.00;99.90;;;;;;5069691;28;20256;-70
2021/11/05 02:57:26;;;;;;;15.50;6.93;;;6.00;99.90;;;;;;5070670;28;20215;-71
2021/11/05 02:59:53;;;;;;;13.83;6.13;;;6.10;1.00;;;;;;5069545;28;20230;-72
2021/11/05 03:02:22;;;;;;;11.43;6.73;;;6.00;99.90;;;;;;5070411;28;20206;-71
2021/11/05 03:04:49;;;;;;;9.57;6.00;;;6.10;1.00;;;;;;5070301;28;20237;-69
2021/11/05 03:07:16;;;;;;;11.37;6.70;;;6.10;99.90;;;;;;5070339;28;20206;-71
2021/11/05 03:09:43;;;;;;;16.70;6.80;;;6.10;1.00;;;;;;5070158;28;20218;-73
2021/11/05 03:12:12;;;;;;;11.63;6.77;;;6.30;1.00;;;;;;5070331;28;20626;-72
2021/11/05 03:14:41;;;;;;;9.20;6.03;;;6.20;99.90;;;;;;5070316;28;20715;-72
2021/11/05 03:17:09;;;;;;;9.53;6.20;;;6.20;99.90;;;;;;5070293;28;20213;-72
2021/11/05 03:19:36;;;;;;;8.97;6.50;;;6.20;99.90;;;;;;5070765;28;20202;-72
2021/11/05 03:22:04;;;;;;;9.57;7.67;;;6.20;99.90;;;;;;5069840;28;20218;-71
2021/11/05 03:24:32;;;;;;;12.70;6.63;;;6.30;99.90;;;;;;5070323;28;20301;-72
2021/11/05 03:26:59;;;;;;;10.83;6.47;;;6.20;99.90;;;;;;5069701;28;20744;-72
2021/11/05 03:29:26;;;;;;;12.20;6.63;;;6.30;99.90;;;;;;5069751;28;20202;-71
2021/11/05 03:31:54;;;;;;;9.63;6.13;;;6.10;99.90;;;;;;5071512;28;20627;-71
2021/11/05 03:34:21;;;;;;;11.47;6.70;;;6.00;99.90;;;;;;5074015;28;20202;-72
2021/11/05 03:36:48;;;;;;;8.80;5.50;;;5.90;99.90;;;;;;5073795;28;20210;-71
2021/11/05 03:39:15;;;;;;;11.67;6.73;;;5.90;99.90;;;;;;5074124;28;20283;-71
2021/11/05 03:41:43;;;;;;;8.87;6.57;;;6.10;99.90;;;;;;5073349;28;20234;-70
2021/11/05 03:44:10;;;;;;;10.93;7.37;;;6.10;99.90;;;;;;5073643;28;20297;-69
2021/11/05 03:46:37;;;;;;;10.07;7.97;;;6.10;99.90;;;;;;5074348;28;20206;-68
2021/11/05 03:49:07;;;;;;;10.13;6.87;;;6.10;99.90;;;;;;5073694;28;20267;-68
2021/11/05 03:51:34;;;;;;;10.00;6.37;;;6.30;99.90;;;;;;5073403;28;20677;-68
2021/11/05 03:54:01;;;;;;;10.23;6.67;;;6.30;99.90;;;;;;5073543;28;20214;-69
2021/11/05 03:56:28;;;;;;;10.90;6.53;;;6.20;99.90;;;;;;5073589;28;20202;-69
2021/11/05 03:58:55;;;;;;;11.70;7.73;;;6.30;99.90;;;;;;5072973;28;20305;-69
2021/11/05 04:01:22;;;;;;;12.50;6.60;;;6.40;99.90;;;;;;5073207;28;20260;-69
2021/11/05 04:03:50;;;;;;;10.63;6.57;;;6.20;99.90;;;;;;5073312;28;20206;-69
2021/11/05 04:06:20;;;;;;;10.53;7.13;;;6.20;99.90;;;;;;5073463;28;20276;-69
2021/11/05 04:08:47;;;;;;;9.20;6.60;;;6.10;99.90;;;;;;5073116;28;20206;-69
2021/11/05 04:11:15;;;;;;;8.67;6.30;;;6.10;99.90;;;;;;5073506;28;20209;-70
2021/11/05 04:13:42;;;;;;;7.20;5.43;;;6.00;99.90;;;;;;5072728;28;20255;-71
2021/11/05 04:16:09;;;;;;;8.57;5.10;;;6.20;99.90;;;;;;5073913;28;20206;-70
2021/11/05 04:18:36;;;;;;;7.00;5.30;;;6.10;99.90;;;;;;5073554;28;20202;-70
2021/11/05 04:21:04;;;;;;;8.40;5.43;;;6.10;99.90;;;;;;5072942;28;20240;-70
2021/11/05 04:23:33;;;;;;;9.17;5.00;;;6.00;99.90;;;;;;5072738;28;20206;-70
2021/11/05 04:26:01;;;;;;;8.40;4.90;;;6.10;99.90;;;;;;5072951;28;20699;-71
2021/11/05 04:28:28;;;;;;;7.70;5.50;;;6.00;99.90;;;;;;5072970;28;20267;-69
2021/11/05 04:30:55;;;;;;;7.57;5.37;;;5.90;99.90;;;;;;5072396;28;20202;-68
2021/11/05 04:33:22;;;;;;;8.03;4.90;;;5.80;99.90;;;;;;5073090;28;20255;-69
2021/11/05 04:35:49;;;;;;;7.33;5.77;;;5.80;99.90;;;;;;5072184;28;20583;-69
2021/11/05 04:38:16;;;;;;;8.23;5.17;;;5.90;99.90;;;;;;5072971;28;20561;-68
2021/11/05 04:40:45;;;;;;;8.90;6.17;;;6.00;99.90;;;;;;5072609;28;20237;-72
2021/11/05 04:43:12;;;;;;;6.40;4.73;;;6.00;99.90;;;;;;5071712;28;20260;-71
2021/11/05 04:45:39;;;;;;;7.93;4.87;;;6.00;99.90;;;;;;5073238;28;20271;-71
2021/11/05 04:48:06;;;;;;;9.13;4.93;;;6.00;99.90;;;;;;5072567;28;20202;-71
2021/11/05 04:50:34;;;;;;;7.80;5.30;;;6.00;99.90;;;;;;5072712;28;20568;-71
2021/11/05 04:53:01;;;;;;;7.17;4.93;;;6.00;99.90;;;;;;5072135;28;20202;-71
2021/11/05 04:55:29;;;;;;;6.60;5.07;;;6.10;99.90;;;;;;5072730;28;20682;-71
2021/11/05 04:57:57;;;;;;;7.23;6.10;;;6.20;99.90;;;;;;5071789;28;20210;-71
2021/11/05 05:00:26;;;;;;;8.60;5.30;;;6.20;99.90;;;;;;5072768;28;20280;-72
2021/11/05 05:02:53;;;;;;;10.00;6.23;;;6.30;99.90;;;;;;5071997;28;20210;-72
2021/11/05 05:05:21;;;;;;;7.10;4.97;;;6.30;99.90;;;;;;5072493;28;20209;-72
2021/11/05 05:07:49;;;;;;;7.37;5.20;;;6.30;99.90;;;;;;5072261;28;20214;-72
2021/11/05 05:10:16;;;;;;;9.57;5.90;;;6.20;99.90;;;;;;5072086;28;20206;-72
2021/11/05 05:12:43;;;;;;;8.37;4.97;;;6.20;99.90;;;;;;5071995;28;20596;-71
2021/11/05 05:15:14;;;;;;;6.73;4.87;;;6.30;99.90;;;;;;5072141;28;20735;-71
2021/11/05 05:17:41;;;;;;;9.20;5.83;;;6.30;99.90;;;;;;5072130;28;20558;-71
2021/11/05 05:20:11;;;;;;;6.93;4.47;;;6.40;99.90;;;;;;5072072;28;20229;-71
2021/11/05 05:22:39;;;;;;;7.53;5.20;;;6.50;99.90;;;;;;5072582;28;20210;-71
2021/11/05 05:25:08;;;;;;;7.03;4.77;;;6.40;99.90;;;;;;5071846;28;20203;-71
2021/11/05 05:27:36;;;;;;;7.40;4.47;;;6.30;99.90;;;;;;5072398;28;20199;-71
2021/11/05 05:30:04;;;;;;;7.23;5.07;;;6.30;99.90;;;;;;5071390;28;20214;-71
2021/11/05 05:32:32;;;;;;;6.60;4.70;;;6.40;99.90;;;;;;5071843;28;20293;-71
2021/11/05 05:35:00;;;;;;;7.33;4.90;;;6.30;99.90;;;;;;5071272;28;20331;-71
2021/11/05 05:37:27;;;;;;;7.23;4.73;;;6.40;99.90;;;;;;5071679;28;20631;-71
2021/11/05 05:39:54;;;;;;;7.07;5.20;;;6.40;99.90;;;;;;5071239;28;20576;-70
2021/11/05 05:42:21;;;;;;;5.10;4.30;;;6.40;99.90;;;;;;5071417;28;20238;-71
2021/11/05 05:44:48;;;;;;;6.57;4.30;;;6.50;99.90;;;;;;5070840;28;20198;-71
2021/11/05 05:47:15;;;;;;;6.37;4.50;;;6.50;99.90;;;;;;5071349;28;20255;-71
2021/11/05 05:49:43;;;;;;;5.13;4.10;;;6.40;99.90;;;;;;5071313;28;20251;-71
2021/11/05 05:52:10;;;;;;;4.97;3.73;;;6.30;99.90;;;;;;5071596;28;20260;-71
2021/11/05 05:54:37;;;;;;;7.57;4.40;;;6.30;99.90;;;;;;5071389;28;20256;-70
2021/11/05 05:57:04;;;;;;;7.03;4.40;;;6.40;99.90;;;;;;5070841;28;20210;-71
2021/11/05 05:59:31;;;;;;;6.07;4.30;;;6.50;99.90;;;;;;5071354;28;20210;-70
2021/11/05 06:01:58;;;;;;;4.63;3.57;;;6.60;99.90;;;;;;5070741;28;20225;-71
2021/11/05 06:04:26;;;;;;;5.80;4.70;;;6.50;99.90;;;;;;5071562;28;20248;-71
2021/11/05 06:06:55;;;;;;;4.97;4.00;;;6.60;99.90;;;;;;5070323;28;20281;-71
2021/11/05 06:09:22;;;;;;;5.80;4.27;;;6.50;99.90;;;;;;5070580;28;20217;-71
2021/11/05 06:11:49;;;;;;;7.97;5.80;;;6.60;99.90;;;;;;5069927;28;20283;-71
2021/11/05 06:14:16;;;;;;;6.23;4.73;;;6.60;99.90;;;;;;5069912;28;20668;-71
2021/11/05 06:16:43;;;;;;;7.73;5.17;;;6.60;99.90;;;;;;5070682;28;20247;-71
2021/11/05 06:19:10;;;;;;;6.47;4.93;;;6.60;99.90;;;;;;5071333;28;20202;-70
2021/11/05 06:21:37;;;;;;;5.90;4.20;;;6.60;99.90;;;;;;5070891;28;20226;-71
2021/11/05 06:24:06;;;;;;;6.87;5.33;;;6.60;99.90;;;;;;5057549;28;20267;-71
2021/11/05 06:26:33;;;;;;;8.97;5.07;;;6.60;99.90;;;;;;5066869;28;20259;-70
2021/11/05 06:29:02;;;;;;;9.00;6.70;;;6.60;99.90;;;;;;5068048;28;20616;-70
2021/11/05 06:31:30;;;;;;;7.13;5.80;;;6.60;99.90;;;;;;5070394;28;20206;-71
2021/11/05 06:33:57;;;;;;;8.80;6.00;;;6.60;99.90;;;;;;5069706;28;20202;-71
2021/11/05 06:36:24;;;;;;;9.50;6.83;;;6.70;99.90;;;;;;5070250;28;20222;-71
2021/11/05 06:38:52;;;;;;;9.37;6.13;;;6.70;99.90;;;;;;5069752;28;20665;-72
2021/11/05 06:41:21;;;;;;;9.37;6.63;;;6.70;99.90;;;;;;5069866;28;20732;-71
2021/11/05 06:43:48;;;;;;;10.63;7.57;;;6.60;99.90;;;;;;5069900;28;20597;-71
2021/11/05 06:46:16;;;;;;;9.93;6.77;;;6.70;99.90;;;;;;5068433;28;20203;-71
2021/11/05 06:48:43;;;;;;;9.03;6.40;;;6.60;99.90;;;;;;5069427;28;20201;-72
2021/11/05 06:51:11;;;;;;;13.17;7.20;;;6.60;99.90;;;;;;5069748;28;20646;-71
2021/11/05 06:53:38;;;;;;;9.27;6.50;;;6.60;99.90;;;;;;5069924;28;20280;-72
2021/11/05 06:56:06;;;;;;;13.17;7.13;;;6.60;99.90;;;;;;5069880;28;20198;-71
2021/11/05 06:58:36;;;;;;;12.43;7.53;;;6.60;99.90;;;;;;5069783;28;20213;-71
2021/11/05 07:01:04;;;;;;;12.80;9.67;;;6.50;99.90;;;;;;5069732;28;20716;-71
2021/11/05 07:03:31;;;;;;;14.97;8.73;;;6.60;99.90;;;;;;5069543;28;20202;-72
2021/11/05 07:05:59;;;;;;;11.53;8.33;;;6.60;99.90;;;;;;5067698;28;20260;-72
2021/11/05 07:08:28;;;;;;;14.43;9.40;;;6.60;99.90;;;;;;5068019;28;20218;-72
2021/11/05 07:10:56;;;;;;;12.97;7.90;;;6.60;99.90;;;;;;5069732;28;20312;-72
2021/11/05 07:13:23;;;;;;;13.00;8.30;;;6.60;99.90;;;;;;5069535;28;20214;-72
2021/11/05 07:15:52;;;;;;;14.80;7.67;;;6.80;99.90;;;;;;5069573;28;20198;-71
2021/11/05 07:18:19;;;;;;;13.20;8.10;;;6.80;99.90;;;;;;5069401;28;20214;-71
2021/11/05 07:20:47;;;;;;;11.87;7.30;;;6.70;99.90;;;;;;5069242;28;20260;-71
2021/11/05 07:23:14;;;;;;;10.60;6.60;;;6.70;99.90;;;;;;5066836;28;20267;-72
2021/11/05 07:25:42;;;;;;;12.23;7.30;;;6.60;99.90;;;;;;5067344;28;20631;-70
2021/11/05 07:28:12;;;;;;;10.73;7.13;;;6.80;99.90;;;;;;5066798;28;20588;-71
2021/11/05 07:30:39;;;;;;;11.17;7.87;;;6.90;99.90;;;;;;5069605;28;20208;-71
2021/11/05 07:33:07;;;;;;;16.30;10.10;;;6.90;99.90;;;;;;5069563;28;20276;-70
2021/11/05 07:35:35;;;;;;;11.93;7.03;;;6.90;99.90;;;;;;5069463;28;20202;-71
2021/11/05 07:38:02;;;;;;;10.13;6.23;;;6.90;99.90;;;;;;5069208;28;20674;-71
2021/11/05 07:40:31;;;;;;;11.20;7.40;;;7.00;99.90;;;;;;5069293;28;20272;-70
2021/11/05 07:42:58;;;;;;;10.37;7.13;;;7.10;99.90;;;;;;5069246;28;20224;-72
2021/11/05 07:45:26;;;;;;;12.43;7.30;;;7.20;99.90;;;;;;5069672;28;20206;-71
2021/11/05 07:47:55;;;;;;;11.07;7.57;;;7.20;99.90;;;;;;5068887;28;20238;-71
2021/11/05 07:50:25;;;;;;;11.80;7.50;;;7.10;99.90;;;;;;5069297;28;20210;-71
2021/11/05 07:52:52;;;;;;;10.10;6.60;;;7.10;99.90;;;;;;5068764;28;20249;-71
2021/11/05 07:55:19;;;;;;;10.87;7.37;;;7.10;99.90;;;;;;5068557;28;20209;-71
2021/11/05 07:57:46;;;;;;;11.37;7.07;;;7.20;99.90;;;;;;5056306;28;20252;-71
2021/11/05 08:00:14;;;;;;;10.37;7.40;;;7.20;99.90;;;;;;5060978;28;20260;-71
2021/11/05 08:02:43;;;;;;;8.67;6.87;;;7.20;99.90;;;;;;5062125;28;20233;-72
2021/11/05 08:05:10;;;;;;;10.43;7.37;;;7.20;99.90;;;;;;5067453;28;20210;-71
2021/11/05 08:07:40;;;;;;;11.13;7.70;;;7.30;99.90;;;;;;5064506;28;20578;-71
2021/11/05 08:10:11;;;;;;;9.07;6.33;;;7.30;99.90;;;;;;5069437;28;20255;-71
2021/11/05 08:12:40;;;;;;;10.93;7.27;;;7.30;99.90;;;;;;5070430;28;20629;-71
2021/11/05 08:15:08;;;;;;;8.50;6.80;;;7.50;99.90;;;;;;5063567;28;20199;-71
2021/11/05 08:17:35;;;;;;;10.37;7.10;;;7.60;99.90;;;;;;5066019;28;20260;-70
2021/11/05 08:20:02;;;;;;;9.30;6.87;;;7.50;99.90;;;;;;5072883;28;20706;-70
2021/11/05 08:22:29;;;;;;;13.23;7.73;;;7.50;99.90;;;;;;5060532;28;20507;-72
2021/11/05 08:24:57;;;;;;;10.67;6.77;;;7.50;99.90;;;;;;5066040;28;20199;-70
2021/11/05 08:27:26;;;;;;;11.53;7.50;;;7.50;99.90;;;;;;5058854;28;20580;-70
2021/11/05 08:29:53;;;;;;;8.97;5.73;;;7.50;99.90;;;;;;5072876;28;20206;-71
2021/11/05 08:32:20;;;;;;;11.43;7.97;;;7.60;99.90;;;;;;5078321;28;20201;-70
2021/11/05 08:34:47;;;;;;;8.63;6.17;;;7.70;99.90;;;;;;5072689;28;20259;-72
2021/11/05 08:37:14;;;;;;;6.83;6.00;;;7.70;99.90;;;;;;5072872;28;20727;-71
2021/11/05 08:39:41;;;;;;;10.93;6.13;;;7.70;99.90;;;;;;5072841;28;20248;-71
2021/11/05 08:42:10;;;;;;;9.23;5.57;;;7.80;99.90;;;;;;5072072;28;20246;-71
2021/11/05 08:44:37;;;;;;;8.60;6.30;;;7.80;99.90;;;;;;5077451;28;20206;-70
2021/11/05 08:47:04;;;;;;;7.57;5.30;;;7.80;99.90;;;;;;5068946;28;20202;-70
2021/11/05 08:49:31;;;;;;;9.73;6.07;;;7.90;99.90;;;;;;5071028;28;20232;-70
2021/11/05 08:51:58;;;;;;;10.63;6.73;;;7.80;99.90;;;;;;5070669;28;20248;-70
2021/11/05 08:54:26;;;;;;;9.60;6.37;;;7.90;99.90;;;;;;5064882;28;20210;-70
2021/11/05 08:56:54;;;;;;;8.47;6.40;;;7.90;99.90;;;;;;5065425;28;20210;-71
2021/11/05 08:59:24;;;;;;;9.07;7.33;;;8.00;99.90;;;;;;5058938;28;20281;-71
2021/11/05 09:01:51;;;;;;;8.17;6.03;;;8.10;99.90;;;;;;5070395;28;20225;-71
2021/11/05 09:04:19;;;;;;;7.77;5.40;;;8.30;99.90;;;;;;5070377;28;20263;-70
2021/11/05 09:06:47;;;;;;;6.50;5.17;;;8.40;99.90;;;;;;5071494;28;20210;-71
2021/11/05 09:09:14;;;;;;;6.60;5.50;;;8.40;99.90;;;;;;5069214;28;20215;-71
2021/11/05 09:11:41;;;;;;;8.17;6.70;;;8.40;99.90;;;;;;5066267;28;20252;-70
2021/11/05 09:14:08;;;;;;;9.40;7.10;;;8.50;99.90;;;;;;5068615;28;20202;-72
2021/11/05 09:16:37;;;;;;;7.60;6.20;;;8.50;99.90;;;;;;5065580;28;20210;-70
2021/11/05 09:19:04;;;;;;;7.60;5.93;;;8.50;99.90;;;;;;5060219;28;20230;-70
2021/11/05 09:21:33;;;;;;;9.63;7.37;;;8.50;99.90;;;;;;5059980;28;20202;-71
2021/11/05 09:24:00;;;;;;;9.97;7.07;;;8.40;99.90;;;;;;5059527;28;20751;-71
2021/11/05 09:26:27;;;;;;;11.27;6.50;;;8.50;99.90;;;;;;5065359;28;20206;-71
2021/11/05 09:28:54;;;;;;;10.87;6.83;;;8.50;99.90;;;;;;5068180;28;20209;-69
2021/11/05 09:31:21;;;;;;;8.47;6.93;;;8.60;99.90;;;;;;5062918;28;20623;-69
2021/11/05 09:33:50;;;;;;;8.60;6.67;;;8.70;99.90;;;;;;5063988;28;20202;-73
2021/11/05 09:36:17;;;;;;;10.37;6.20;;;8.70;99.90;;;;;;5061355;28;20202;-70
2021/11/05 09:38:45;;;;;;;8.37;5.60;;;8.90;99.90;;;;;;5055742;28;20639;-73
2021/11/05 09:41:12;;;;;;;8.80;6.27;;;9.10;99.90;;;;;;5066857;28;20209;-70
2021/11/05 09:43:41;;;;;;;9.77;5.90;;;9.10;99.90;;;;;;5063773;28;22133;-72
2021/11/05 09:46:08;;;;;;;9.23;6.73;;;9.10;99.90;;;;;;5062537;28;20605;-70
2021/11/05 09:48:37;;;;;;;8.20;5.63;;;9.20;99.90;;;;;;5062935;28;20205;-73
2021/11/05 09:51:06;;;;;;;9.47;6.70;;;9.40;99.90;;;;;;5064428;28;20202;-73
2021/11/05 09:53:36;;;;;;;9.23;6.77;;;9.40;99.90;;;;;;5064147;28;20214;-74
2021/11/05 09:56:04;;;;;;;7.73;6.10;;;9.20;99.90;;;;;;5056775;28;20214;-71
2021/11/05 09:58:31;;;;;;;7.97;6.83;;;9.20;99.90;;;;;;5062260;28;20294;-76
2021/11/05 10:00:58;;;;;;;8.07;6.40;;;9.10;99.90;;;;;;5056768;28;20260;-71
2021/11/05 10:03:26;;;;;;;7.00;5.77;;;9.10;99.90;;;;;;5059803;28;20230;-72
2021/11/05 10:05:54;;;;;;;9.97;6.73;;;9.10;99.90;;;;;;5064703;28;20210;-73
2021/11/05 10:08:31;;;;;;;10.63;7.60;;;9.10;99.90;;;;;;5068386;28;20259;-74
2021/11/05 10:10:59;;;;;;;9.97;6.57;;;9.20;99.90;;;;;;5058244;28;20213;-72
2021/11/05 10:13:26;;;;;;;11.87;7.63;;;9.20;99.90;;;;;;5061511;28;20327;-73
2021/11/05 10:15:56;;;;;;;10.10;7.23;;;9.20;99.90;;;;;;5067436;28;20607;-72
2021/11/05 10:18:25;;;;;;;9.83;6.90;;;9.20;99.90;;;;;;5067075;28;20269;-72
2021/11/05 10:21:08;;;;;;;11.77;8.30;;;9.20;99.90;;;;;;5063803;28;20743;-71
2021/11/05 10:23:38;;;;;;;8.80;6.20;;;9.20;99.90;;;;;;5066062;28;20296;-72
2021/11/05 10:26:07;;;;;;;9.53;6.87;;;9.20;99.90;;;;;;5068356;28;20216;-72
2021/11/05 10:28:38;;;;;;;10.80;7.17;;;9.30;99.90;;;;;;5069151;28;20285;-72
2021/11/05 10:31:08;;;;;;;11.50;7.20;;;9.30;99.90;;;;;;5069669;28;20622;-72
2021/11/05 10:33:40;;;;;;;10.57;7.67;;;9.30;99.90;;;;;;5070548;28;20206;-72
2021/11/05 10:36:08;;;;;;;10.60;6.90;;;9.30;99.90;;;;;;5068698;28;20248;-74
2021/11/05 10:38:39;;;;;;;11.53;7.23;;;9.10;99.90;;;;;;5070649;28;20202;-72
2021/11/05 10:41:10;;;;;;;11.20;8.00;;;9.30;99.90;;;;;;5068888;28;20221;-72
2021/11/05 10:43:40;;;;;;;8.87;6.37;;;9.30;99.90;;;;;;5070773;28;20743;-72
2021/11/05 10:46:10;;;;;;;10.83;6.80;;;9.30;99.90;;;;;;5070167;28;20256;-71
2021/11/05 10:48:39;;;;;;;8.40;5.57;;;9.40;99.90;;;;;;5070262;28;20202;-72
2021/11/05 10:51:08;;;;;;;9.13;6.37;;;9.60;99.90;;;;;;5070224;28;20628;-74
2021/11/05 10:53:40;;;;;;;11.13;6.37;;;9.60;99.90;;;;;;5070326;28;20620;-72
2021/11/05 10:56:08;;;;;;;13.70;8.90;;;9.70;99.90;;;;;;5070351;28;20198;-73
2021/11/05 10:58:37;;;;;;;8.13;6.60;;;9.80;99.90;;;;;;5067763;28;20556;-70
2021/11/05 11:01:06;;;;;;;9.33;6.50;;;9.70;99.90;;;;;;5068929;28;20256;-71
2021/11/05 11:03:38;;;;;;;8.00;5.90;;;9.70;99.90;;;;;;5058262;28;20227;-71
2021/11/05 11:06:08;;;;;;;10.13;6.00;;;9.70;99.90;;;;;;5061911;28;20206;-71
2021/11/05 11:08:38;;;;;;;7.50;5.83;;;9.80;99.90;;;;;;5057498;28;20203;-71
2021/11/05 11:11:24;;;;;;;8.37;6.07;;;9.90;99.90;;;;;;5060324;28;20204;-71
2021/11/05 11:13:52;;;;;;;7.37;5.57;;;9.90;99.90;;;;;;5063563;28;20206;-71
2021/11/05 11:16:22;;;;;;;9.20;5.97;;;9.90;99.90;;;;;;5061285;28;20202;-71
2021/11/05 11:18:52;;;;;;;8.63;4.90;;;10.00;99.90;;;;;;5067674;28;20194;-71
2021/11/05 11:21:21;;;;;;;7.93;6.37;;;10.00;99.90;;;;;;5072005;28;20202;-71
2021/11/05 11:23:50;;;;;;;8.47;5.53;;;10.10;99.90;;;;;;5073556;28;20279;-71
2021/11/05 11:26:17;;;;;;;6.47;4.57;;;10.10;99.90;;;;;;5069833;28;20259;-71
2021/11/05 11:28:45;;;;;;;9.13;5.47;;;10.20;99.90;;;;;;5069140;28;20214;-72
2021/11/05 11:31:22;;;;;;;7.43;5.50;;;10.30;99.90;;;;;;5067113;28;20301;-71
2021/11/05 11:33:51;;;;;;;8.40;5.60;;;10.40;99.90;;;;;;5065436;28;20231;-70
2021/11/05 11:36:20;;;;;;;9.73;5.23;;;10.50;99.90;;;;;;5069204;28;20237;-71
2021/11/05 11:38:51;;;;;;;7.23;6.17;;;10.50;99.90;;;;;;5068695;28;20292;-69
2021/11/05 11:41:20;;;;;;;7.50;5.37;;;10.60;99.90;;;;;;5067329;28;20630;-71
2021/11/05 11:43:48;;;;;;;8.40;4.90;;;10.70;99.90;;;;;;5067521;28;20234;-70
2021/11/05 11:46:15;;;;;;;7.37;5.10;;;10.50;99.90;;;;;;5066571;28;20206;-69
2021/11/05 11:48:46;;;;;;;10.33;5.37;;;10.30;99.90;;;;;;5063998;28;20211;-69
2021/11/05 11:51:30;;;;;;;9.00;4.50;;;10.50;99.90;;;;;;5064216;28;20202;-69
2021/11/05 11:54:03;;;;;;;7.10;4.73;;;10.90;99.90;;;;;;5071107;28;20229;-69
2021/11/05 11:56:34;;;;;;;6.80;3.97;;;11.40;99.90;;;;;;5074008;28;20264;-70
2021/11/05 11:59:04;;;;;;;6.17;4.50;;;11.50;99.90;;;;;;5072558;28;20214;-70
2021/11/05 12:01:35;;;;;;;7.20;4.23;;;11.60;99.90;;;;;;5056297;28;20276;-72
2021/11/05 12:04:04;;;;;;;5.60;3.93;;;11.70;99.90;;;;;;5068274;28;20265;-71
2021/11/05 12:07:07;;;;;;;5.63;4.33;;;11.90;99.90;;;;;;5080240;28;20206;-72
2021/11/05 12:09:38;;;;;;;6.33;4.73;;;11.80;99.90;;;;;;5065872;28;20202;-70
2021/11/05 12:12:34;;;;;;;5.73;4.07;;;11.50;99.90;;;;;;5071460;28;20255;-72
2021/11/05 12:15:24;;;;;;;5.40;3.83;;;11.30;99.90;;;;;;5071896;28;20301;-71
2021/11/05 12:18:10;;;;;;;5.43;4.20;;;11.10;99.90;;;;;;5079070;28;20201;-71
2021/11/05 12:20:39;;;;;;;8.07;5.70;;;11.00;99.90;;;;;;5072119;28;20214;-70
2021/11/05 12:23:22;;;;;;;6.20;5.17;;;11.20;99.90;;;;;;5072322;28;20230;-70
2021/11/05 12:25:57;;;;;;;4.23;3.20;;;11.40;99.90;;;;;;5059658;28;20210;-70
2021/11/05 12:28:27;;;;;;;7.03;4.10;;;11.10;99.90;;;;;;5072782;28;20202;-70
2021/11/05 12:30:56;;;;;;;5.27;4.17;;;11.20;99.90;;;;;;5071480;28;20630;-71
2021/11/05 12:33:30;;;;;;;6.07;3.50;;;11.50;99.90;;;;;;5072299;28;20637;-70
2021/11/05 12:35:59;;;;;;;4.83;3.60;;;11.70;99.90;;;;;;5072137;28;20229;-70
2021/11/05 12:38:26;;;;;;;6.07;4.93;;;12.10;99.90;;;;;;5073089;28;20202;-71
2021/11/05 12:41:02;;;;;;;4.73;3.87;;;12.20;99.90;;;;;;5071510;28;20222;-70
2021/11/05 12:43:43;;;;;;;6.73;3.20;;;12.40;99.90;;;;;;5072027;28;20214;-70
2021/11/05 12:46:17;;;;;;;5.00;2.67;;;12.50;99.90;;;;;;5072654;28;20276;-71
2021/11/05 12:48:58;;;;;;;5.70;3.77;;;11.90;99.90;;;;;;5070268;28;20553;-72
2021/11/05 12:51:28;;;;;;;5.13;3.67;;;11.60;99.90;;;;;;5067710;28;20708;-71
2021/11/05 12:54:09;;;;;;;5.53;4.43;;;11.40;99.90;;;;;;5069574;28;20593;-72
2021/11/05 12:56:39;;;;;;;7.33;3.27;;;11.10;99.90;;;;;;5068192;28;20260;-71